Windthorst, Texas
Current Conditions -  °F | °C
As of 7:35 AM on Saturday 25 Oct 2014 (Local Time) from KCWC Reporting Station
Clear Clear  
Wind Chill: 60°   Ceiling: Unl
Heat Index: 60°   Visibility: 10mi
Dew Point: 56°   Wind: 3mph
Humidity: 88%   Direction: 160°SSE
Pressure: 30.1"   Gusts: NA
Location:  33.58°N, 98.44°W
Report Text: KCWC 251235Z AUTO 16003KT 10SM CLR 16/14 A3010 RMK AO2 T01550136
Loading
Personal Weather Stations






























Interactive Weather Map
Tropical Storm Tracking
New forecast layout! Learn more

10-Day Weather Forecast

Advertisements
Track Severe Weather on mobile